Iver Bright — ZDKU4 — position and weather

sailwx.info

Track history (hours):
 
Tides and Currents Weather Stations Pressure Air Temp Water Temp Dewpoint Dewpoint Depression Visibility Wind Speed Wind Dir Waves Ship Positions

Iver Bright

Last reported at 2016-May-05 14:33 UTC. Time now 2016-May-06 09:18 UTC.
Position N 36°21' E 014°36'.

Length 111 m; draft 5.3 m.

Type: Tanker. MMSI: 236111811.

Date/timePositionNaut miles runAvg speedWind from/ knotsBaromVisibWave heightAir tempDewpointWater temp
2016-May-05 14:33N 36°21' E 014°36'1212.2
2016-May-05 13:33N 36°15' E 014°23'1212.3
2016-May-05 12:33N 36°10' E 014°09'1211.9
2016-May-05 11:34N 36°04' E 013°57'1212.0
2016-May-05 10:33N 35°54' E 013°49'2612.5
2016-May-05 08:30N 35°33' E 013°30'1212.5
2016-May-05 07:33N 35°24' E 013°21'  
2016-Apr-28 09:33N 36°53' E 013°14'1212.3
2016-Apr-28 08:33N 36°48' E 013°28'1312.5
2016-Apr-28 07:32N 36°43' E 013°43'1212.4
2016-Apr-28 06:33N 36°39' E 013°57'1212.2
2016-Apr-28 05:33N 36°34' E 014°11'1212.3
2016-Apr-28 04:33N 36°30' E 014°25'1212.0
2016-Apr-28 03:33N 36°26' E 014°40'1211.6
2016-Apr-28 02:33N 36°27' E 014°54'1111.5
2016-Apr-28 01:33N 36°29' E 015°08'1110.5
2016-Apr-28 00:33N 36°37' E 015°17'1212.3
2016-Apr-27 23:33N 36°48' E 015°21'  
Track history (hours):
 
Tides and Currents Weather Stations Pressure Air Temp Water Temp Dewpoint Dewpoint Depression Visibility Wind Speed Wind Dir Waves Ship Positions

Iver Bright

Last reported at 2016-May-05 14:33 UTC. Time now 2016-May-06 09:18 UTC.
Position N 36°21' E 014°36'.

Length 111 m; draft 5.3 m.

Type: Tanker. MMSI: 236111811.

Date/timePositionNaut miles runAvg speedWind from/ knotsBaromVisibWave heightAir tempDewpointWater temp
2016-May-05 14:33N 36°21' E 014°36'1212.2
2016-May-05 13:33N 36°15' E 014°23'1212.3
2016-May-05 12:33N 36°10' E 014°09'1211.9
2016-May-05 11:34N 36°04' E 013°57'1212.0
2016-May-05 10:33N 35°54' E 013°49'2612.5
2016-May-05 08:30N 35°33' E 013°30'1212.5
2016-May-05 07:33N 35°24' E 013°21'  
2016-Apr-28 09:33N 36°53' E 013°14'1212.3
2016-Apr-28 08:33N 36°48' E 013°28'1312.5
2016-Apr-28 07:32N 36°43' E 013°43'1212.4
2016-Apr-28 06:33N 36°39' E 013°57'1212.2
2016-Apr-28 05:33N 36°34' E 014°11'1212.3
2016-Apr-28 04:33N 36°30' E 014°25'1212.0
2016-Apr-28 03:33N 36°26' E 014°40'1211.6
2016-Apr-28 02:33N 36°27' E 014°54'1111.5
2016-Apr-28 01:33N 36°29' E 015°08'1110.5
2016-Apr-28 00:33N 36°37' E 015°17'1212.3
2016-Apr-27 23:33N 36°48' E 015°21'  

Dump ship's entire track history